createdAt,value
2019-05-06T00:02:25.095Z,7.55
2019-05-06T00:04:54.059Z,9.00
2019-05-06T00:07:20.144Z,9.35
2019-05-06T00:09:46.778Z,9.43
2019-05-06T00:12:14.545Z,7.40
2019-05-06T00:14:43.166Z,7.33
2019-05-06T00:17:09.966Z,7.75
2019-05-06T00:19:36.512Z,8.78
2019-05-06T00:22:04.748Z,6.03
2019-05-06T00:24:36.184Z,8.00
2019-05-06T00:27:24.720Z,7.95
2019-05-06T00:29:51.815Z,8.75
2019-05-06T00:32:18.513Z,10.20
2019-05-06T00:34:45.186Z,8.10
2019-05-06T00:37:11.798Z,10.08
2019-05-06T00:39:44.391Z,9.13
2019-05-06T00:42:26.619Z,13.45
2019-05-06T00:44:53.720Z,10.08
2019-05-06T00:47:20.583Z,10.48
2019-05-06T00:49:47.277Z,9.15
2019-05-06T00:52:13.957Z,9.80
2019-05-06T00:54:40.945Z,11.00
2019-05-06T00:57:07.810Z,9.33
2019-05-06T00:59:34.622Z,10.23
2019-05-06T01:02:01.736Z,12.65
2019-05-06T01:04:28.334Z,9.93
2019-05-06T01:06:55.027Z,10.72
2019-05-06T01:09:23.465Z,11.33
2019-05-06T01:11:54.066Z,13.05
2019-05-06T01:14:23.537Z,11.85
2019-05-06T01:16:50.420Z,11.22
2019-05-06T01:19:17.371Z,10.88
2019-05-06T01:21:44.709Z,8.93
2019-05-06T01:24:11.785Z,8.00
2019-05-06T01:26:39.838Z,10.50
2019-05-06T01:29:08.533Z,11.12
2019-05-06T01:31:42.923Z,10.35
2019-05-06T01:34:04.757Z,9.95
2019-05-06T01:36:31.388Z,10.13
2019-05-06T01:39:16.386Z,12.28
2019-05-06T01:41:54.255Z,8.68
2019-05-06T01:44:21.087Z,8.33
2019-05-06T01:46:47.781Z,10.45
2019-05-06T01:49:14.457Z,9.08
2019-05-06T01:51:41.099Z,7.97
2019-05-06T01:54:08.973Z,9.25
2019-05-06T01:56:35.454Z,8.45
2019-05-06T01:59:04.322Z,8.55
2019-05-06T02:01:31.061Z,8.95
2019-05-06T02:03:58.000Z,8.53
2019-05-06T02:06:25.067Z,8.35
2019-05-06T02:08:54.015Z,7.80
2019-05-06T02:11:20.853Z,7.78
2019-05-06T02:13:47.503Z,11.25
2019-05-06T02:16:14.791Z,9.90
2019-05-06T02:18:42.026Z,8.98
2019-05-06T02:21:08.532Z,8.28
2019-05-06T02:23:37.272Z,8.93
2019-05-06T02:26:04.922Z,11.83
2019-05-06T02:28:34.485Z,8.13
2019-05-06T02:31:19.897Z,9.58
2019-05-06T02:33:55.479Z,7.23
2019-05-06T02:36:39.462Z,8.03
2019-05-06T02:39:06.528Z,10.45
2019-05-06T02:41:33.828Z,7.92
2019-05-06T02:44:03.660Z,8.20
2019-05-06T02:46:33.490Z,7.17
2019-05-06T02:49:03.798Z,7.05
2019-05-06T02:51:33.133Z,6.83
2019-05-06T02:53:58.919Z,18.32
2019-05-06T02:56:26.734Z,7.50
2019-05-06T02:58:53.739Z,7.75
2019-05-06T03:01:23.274Z,6.60
2019-05-06T03:03:49.316Z,10.72
2019-05-06T03:06:16.185Z,7.47
2019-05-06T03:08:43.578Z,7.95
2019-05-06T03:11:13.531Z,6.95
2019-05-06T03:13:39.737Z,5.78
2019-05-06T03:16:06.342Z,5.70
2019-05-06T03:18:34.200Z,6.40
2019-05-06T03:21:19.436Z,10.25
2019-05-06T03:23:53.945Z,6.53
2019-05-06T03:26:23.548Z,7.08
2019-05-06T03:28:49.842Z,7.30
2019-05-06T03:31:17.265Z,6.00
2019-05-06T03:34:02.044Z,8.50
2019-05-06T03:36:18.728Z,21.48
2019-05-06T03:38:43.260Z,7.33
2019-05-06T03:41:09.586Z,7.45
2019-05-06T03:43:36.392Z,7.40
2019-05-06T03:46:23.324Z,6.95
2019-05-06T03:48:59.024Z,9.13
2019-05-06T03:51:25.794Z,9.10
2019-05-06T03:53:54.086Z,6.47
2019-05-06T03:56:23.797Z,8.25
2019-05-06T03:58:53.352Z,9.63
2019-05-06T04:01:23.644Z,6.90
2019-05-06T04:03:53.769Z,7.92
2019-05-06T04:06:18.374Z,7.67
2019-05-06T04:08:47.418Z,7.65
2019-05-06T04:11:16.474Z,9.65
2019-05-06T04:13:46.592Z,8.63
2019-05-06T04:16:15.426Z,7.42
2019-05-06T04:19:04.094Z,7.50
2019-05-06T04:21:48.842Z,7.03
2019-05-06T04:24:18.792Z,8.70
2019-05-06T04:26:46.484Z,9.95
2019-05-06T04:29:13.727Z,5.67
2019-05-06T04:31:43.344Z,9.38
2019-05-06T04:34:14.531Z,5.12
2019-05-06T04:36:37.765Z,7.22
2019-05-06T04:39:05.281Z,7.33
2019-05-06T04:41:34.150Z,7.78
2019-05-06T04:44:02.865Z,10.82
2019-05-06T04:46:29.909Z,8.45
2019-05-06T04:48:56.641Z,7.65
2019-05-06T04:51:24.771Z,8.40
2019-05-06T04:53:53.691Z,6.15
2019-05-06T04:56:23.680Z,6.03
2019-05-06T04:58:49.970Z,6.05
2019-05-06T05:01:16.799Z,7.20
2019-05-06T05:03:43.628Z,6.95
2019-05-06T05:06:10.329Z,6.20
2019-05-06T05:08:37.150Z,6.50
2019-05-06T05:11:07.955Z,9.53
2019-05-06T05:13:36.819Z,7.20
2019-05-06T05:16:22.130Z,6.50
2019-05-06T05:18:56.781Z,48.70
2019-05-06T05:21:23.344Z,64.35
2019-05-06T05:23:52.256Z,56.48
2019-05-06T05:26:19.008Z,19.23
2019-05-06T05:28:45.842Z,9.13
2019-05-06T05:31:12.671Z,8.73
2019-05-06T05:33:39.380Z,5.90
2019-05-06T05:36:06.268Z,10.72
2019-05-06T05:38:33.146Z,10.78
2019-05-06T05:41:00.335Z,5.35
2019-05-06T05:43:33.007Z,9.15
2019-05-06T05:45:59.766Z,6.37
2019-05-06T05:48:45.605Z,7.70
2019-05-06T05:51:12.793Z,7.50
2019-05-06T05:53:42.479Z,5.05
2019-05-06T05:56:08.817Z,5.92
2019-05-06T05:58:35.654Z,7.17
2019-05-06T06:01:04.202Z,5.95
2019-05-06T06:03:32.426Z,7.87
2019-05-06T06:05:59.373Z,5.37
2019-05-06T06:08:26.337Z,13.13
2019-05-06T06:10:57.837Z,18.32
2019-05-06T06:13:24.642Z,10.28
2019-05-06T06:15:52.121Z,23.47
2019-05-06T06:18:22.433Z,8.18
2019-05-06T06:20:52.800Z,8.88
2019-05-06T06:23:23.078Z,9.23
2019-05-06T06:25:49.948Z,10.38
2019-05-06T06:28:16.624Z,5.72
2019-05-06T06:31:03.011Z,10.25
2019-05-06T06:33:30.049Z,8.00
2019-05-06T06:36:06.161Z,9.98
2019-05-06T06:38:52.715Z,5.95
2019-05-06T06:41:19.745Z,6.35
2019-05-06T06:43:48.335Z,8.30
2019-05-06T06:46:15.522Z,7.00
2019-05-06T06:48:43.095Z,8.53
2019-05-06T06:51:12.262Z,7.05
2019-05-06T06:53:41.979Z,7.80
2019-05-06T06:56:32.833Z,7.33
2019-05-06T06:59:16.998Z,12.45
2019-05-06T07:02:04.309Z,25.45
2019-05-06T07:04:52.437Z,11.45
2019-05-06T07:07:22.837Z,11.20
2019-05-06T07:09:52.625Z,7.83
2019-05-06T07:12:19.786Z,8.33
2019-05-06T07:14:48.806Z,6.72
2019-05-06T07:17:15.513Z,10.03
2019-05-06T07:19:52.664Z,9.05
2019-05-06T07:22:19.486Z,7.65
2019-05-06T07:24:46.248Z,7.08
2019-05-06T07:27:17.787Z,15.63
2019-05-06T07:29:48.156Z,10.05
2019-05-06T07:32:12.998Z,8.25
2019-05-06T07:34:42.047Z,6.83
2019-05-06T07:37:08.426Z,7.10
2019-05-06T07:39:35.162Z,9.58
2019-05-06T07:42:03.796Z,6.75
2019-05-06T07:44:49.347Z,7.95
2019-05-06T07:47:18.123Z,5.33
2019-05-06T07:49:45.093Z,4.50
2019-05-06T07:52:12.382Z,9.70
2019-05-06T07:54:39.469Z,8.90
2019-05-06T07:57:06.097Z,7.53
2019-05-06T07:59:33.400Z,4.25
2019-05-06T08:02:02.307Z,7.97
2019-05-06T08:04:29.147Z,5.87
2019-05-06T08:06:55.963Z,7.87
2019-05-06T08:09:24.093Z,4.35
2019-05-06T08:11:52.892Z,5.42
2019-05-06T08:14:19.799Z,4.40
2019-05-06T08:16:54.302Z,6.60
2019-05-06T08:19:22.732Z,4.65
2019-05-06T08:21:52.166Z,5.15
2019-05-06T08:24:20.082Z,6.50
2019-05-06T08:26:46.844Z,7.62
2019-05-06T08:29:15.923Z,6.67
2019-05-06T08:31:43.058Z,11.97
2019-05-06T08:34:12.137Z,5.10
2019-05-06T08:36:42.642Z,15.48
2019-05-06T08:39:09.994Z,9.10
2019-05-06T08:41:36.743Z,8.10
2019-05-06T08:44:03.737Z,5.05
2019-05-06T08:46:32.695Z,4.95
2019-05-06T08:49:03.046Z,7.53
2019-05-06T08:51:35.438Z,5.50
2019-05-06T08:54:19.780Z,5.15
2019-05-06T08:56:46.639Z,5.40
2019-05-06T08:59:14.047Z,6.50
2019-05-06T09:01:45.736Z,13.00
2019-05-06T09:04:15.913Z,7.75
2019-05-06T09:06:43.138Z,5.33
2019-05-06T09:09:12.797Z,8.68
2019-05-06T09:11:39.328Z,5.58
2019-05-06T09:14:09.695Z,9.65
2019-05-06T09:16:35.564Z,4.28
2019-05-06T09:19:04.461Z,5.22
2019-05-06T09:21:33.530Z,3.42
2019-05-06T09:24:02.271Z,6.70
2019-05-06T09:26:40.051Z,11.63
2019-05-06T09:29:12.812Z,5.25
2019-05-06T09:31:42.726Z,4.40
2019-05-06T09:34:13.053Z,5.25
2019-05-06T09:36:51.326Z,13.30
2019-05-06T09:39:13.000Z,8.70
2019-05-06T09:41:39.868Z,3.62
2019-05-06T09:44:06.875Z,3.33
2019-05-06T09:46:33.548Z,3.33
2019-05-06T09:49:03.313Z,5.47
2019-05-06T09:51:32.359Z,5.22
2019-05-06T09:54:03.790Z,7.33
2019-05-06T09:56:33.467Z,2.95
2019-05-06T09:59:02.226Z,4.58
2019-05-06T10:01:29.199Z,3.87
2019-05-06T10:03:56.088Z,6.53
2019-05-06T10:06:22.954Z,3.25
2019-05-06T10:08:49.752Z,10.23
2019-05-06T10:11:16.372Z,3.35
2019-05-06T10:13:45.201Z,4.87
2019-05-06T10:16:12.998Z,4.65
2019-05-06T10:18:39.988Z,7.83
2019-05-06T10:21:07.285Z,5.65
2019-05-06T10:23:34.079Z,5.87
2019-05-06T10:26:04.279Z,6.47
2019-05-06T10:28:34.195Z,4.97
2019-05-06T10:31:02.138Z,8.88
2019-05-06T10:33:33.175Z,8.33
2019-05-06T10:36:03.783Z,12.68
2019-05-06T10:38:55.918Z,5.47
2019-05-06T10:41:32.809Z,6.78
2019-05-06T10:44:42.843Z,6.25
2019-05-06T10:47:08.890Z,24.57
2019-05-06T10:49:36.812Z,11.75
2019-05-06T10:52:17.235Z,7.05
2019-05-06T10:54:43.677Z,6.70
2019-05-06T10:57:12.607Z,4.00
2019-05-06T10:59:39.571Z,7.03
2019-05-06T11:02:06.532Z,9.73
2019-05-06T11:04:33.290Z,5.25
2019-05-06T11:07:00.103Z,5.42
2019-05-06T11:09:26.835Z,5.80
2019-05-06T11:11:55.819Z,4.87
2019-05-06T11:14:22.880Z,7.33
2019-05-06T11:16:50.227Z,5.72
2019-05-06T11:19:16.771Z,8.93
2019-05-06T11:21:45.359Z,12.65
2019-05-06T11:24:12.403Z,9.63
2019-05-06T11:26:39.422Z,4.72
2019-05-06T11:29:13.873Z,6.17
2019-05-06T11:32:02.389Z,5.17
2019-05-06T11:34:43.130Z,10.95
2019-05-06T11:37:22.978Z,6.90
2019-05-06T11:39:49.498Z,7.00
2019-05-06T11:42:27.546Z,6.70
2019-05-06T11:44:45.046Z,7.65
2019-05-06T11:47:12.473Z,7.55
2019-05-06T11:49:39.444Z,15.05
2019-05-06T11:52:06.150Z,8.93
2019-05-06T11:54:33.759Z,5.30
2019-05-06T11:57:02.910Z,6.03
2019-05-06T11:59:30.231Z,15.75
2019-05-06T12:02:04.923Z,4.95
2019-05-06T12:04:32.916Z,14.63
2019-05-06T12:07:10.229Z,7.90
2019-05-06T12:09:33.059Z,13.18
2019-05-06T12:12:03.066Z,6.50
2019-05-06T12:14:29.451Z,5.35
2019-05-06T12:16:56.211Z,9.20
2019-05-06T12:19:23.000Z,5.95
2019-05-06T12:21:49.841Z,6.12
2019-05-06T12:24:16.575Z,3.45
2019-05-06T12:26:43.224Z,4.40
2019-05-06T12:29:09.879Z,4.50
2019-05-06T12:31:36.721Z,7.40
2019-05-06T12:34:03.650Z,4.95
2019-05-06T12:36:32.301Z,4.58
2019-05-06T12:39:17.588Z,7.30
2019-05-06T12:41:45.109Z,8.03
2019-05-06T12:44:13.092Z,5.55
2019-05-06T12:46:46.007Z,14.87
2019-05-06T12:49:12.936Z,6.50
2019-05-06T12:51:39.741Z,7.83
2019-05-06T12:54:06.522Z,10.30
2019-05-06T12:56:33.129Z,5.65
2019-05-06T12:59:02.089Z,6.33
2019-05-06T13:01:29.774Z,4.80
2019-05-06T13:03:57.720Z,9.90
2019-05-06T13:06:26.570Z,4.47
2019-05-06T13:09:01.121Z,4.62
2019-05-06T13:11:22.115Z,6.28
2019-05-06T13:13:57.476Z,7.00
2019-05-06T13:16:19.288Z,4.15
2019-05-06T13:18:51.416Z,5.42
2019-05-06T13:21:16.187Z,5.83
2019-05-06T13:23:45.036Z,8.63
2019-05-06T13:26:12.831Z,7.80
2019-05-06T13:28:42.659Z,8.00
2019-05-06T13:31:17.324Z,7.87
2019-05-06T13:33:54.507Z,5.00
2019-05-06T13:36:22.595Z,7.17
2019-05-06T13:38:52.191Z,5.70
2019-05-06T13:41:18.416Z,8.78
2019-05-06T13:43:49.701Z,9.53
2019-05-06T13:46:18.251Z,10.03
2019-05-06T13:48:47.123Z,6.22
2019-05-06T13:51:27.958Z,9.50
2019-05-06T13:53:54.966Z,10.98
2019-05-06T13:56:21.693Z,7.45
2019-05-06T13:58:48.444Z,6.80
2019-05-06T14:01:16.983Z,11.43
2019-05-06T14:03:43.707Z,11.40
2019-05-06T14:06:12.270Z,10.63
2019-05-06T14:08:39.187Z,11.10
2019-05-06T14:11:05.958Z,8.90
2019-05-06T14:13:34.108Z,8.33
2019-05-06T14:16:00.720Z,12.73
2019-05-06T14:18:27.527Z,10.93
2019-05-06T14:20:55.954Z,11.38
2019-05-06T14:23:22.913Z,9.38
2019-05-06T14:26:08.212Z,8.33
2019-05-06T14:28:34.881Z,10.35
2019-05-06T14:31:03.440Z,5.92
2019-05-06T14:33:32.160Z,5.42
2019-05-06T14:35:58.774Z,6.67
2019-05-06T14:38:25.494Z,52.03
2019-05-06T14:41:08.071Z,15.20
2019-05-06T14:43:35.011Z,9.05
2019-05-06T14:46:02.028Z,7.58
2019-05-06T14:48:29.063Z,8.23
2019-05-06T14:50:57.335Z,11.30
2019-05-06T14:53:24.411Z,6.60
2019-05-06T14:55:52.989Z,8.45
2019-05-06T14:58:20.102Z,9.83
2019-05-06T15:00:46.556Z,7.67
2019-05-06T15:03:14.474Z,10.30
2019-05-06T15:05:42.751Z,10.78
2019-05-06T15:08:09.407Z,17.35
2019-05-06T15:10:35.978Z,29.57
2019-05-06T15:13:02.920Z,5.83
2019-05-06T15:15:29.738Z,17.50
2019-05-06T15:17:56.511Z,18.77
2019-05-06T15:20:23.690Z,17.98
2019-05-06T15:22:52.748Z,8.85
2019-05-06T15:25:19.235Z,8.23
2019-05-06T15:27:45.925Z,11.00
2019-05-06T15:30:15.669Z,6.60
2019-05-06T15:32:42.665Z,7.25
2019-05-06T15:35:17.653Z,9.83
2019-05-06T15:37:46.187Z,7.15
2019-05-06T15:40:13.867Z,5.08
2019-05-06T15:42:42.515Z,10.88
2019-05-06T15:45:09.748Z,19.70
2019-05-06T15:47:36.523Z,17.57
2019-05-06T15:50:04.213Z,12.68
2019-05-06T15:52:32.467Z,9.03
2019-05-06T15:54:59.607Z,7.72
2019-05-06T15:57:26.240Z,7.95
2019-05-06T15:59:53.271Z,10.93
2019-05-06T16:02:20.235Z,12.60
2019-05-06T16:04:47.000Z,12.25
2019-05-06T16:07:15.276Z,7.50
2019-05-06T16:09:42.885Z,9.20
2019-05-06T16:12:12.616Z,12.85
2019-05-06T16:14:42.494Z,10.10
2019-05-06T16:17:09.215Z,5.95
2019-05-06T16:19:35.875Z,13.28
2019-05-06T16:22:04.090Z,10.50
2019-05-06T16:24:35.159Z,6.65
2019-05-06T16:27:03.111Z,5.35
2019-05-06T16:29:35.845Z,6.72
2019-05-06T16:32:04.759Z,5.55
2019-05-06T16:34:32.344Z,9.23
2019-05-06T16:37:01.904Z,11.18
2019-05-06T16:39:28.964Z,11.30
2019-05-06T16:41:55.908Z,11.30
2019-05-06T16:44:22.863Z,17.12
2019-05-06T16:46:52.103Z,13.55
2019-05-06T16:49:19.082Z,9.18
2019-05-06T16:51:47.128Z,8.13
2019-05-06T16:54:13.755Z,10.25
2019-05-06T16:56:46.185Z,9.18
2019-05-06T16:59:13.077Z,7.08
2019-05-06T17:01:42.615Z,9.18
2019-05-06T17:04:17.330Z,11.35
2019-05-06T17:06:46.011Z,11.08
2019-05-06T17:09:20.729Z,15.25
2019-05-06T17:11:42.687Z,7.40
2019-05-06T17:14:12.121Z,15.00
2019-05-06T17:16:38.200Z,18.20
2019-05-06T17:19:06.087Z,15.38
2019-05-06T17:21:33.349Z,9.88
2019-05-06T17:24:02.193Z,9.73
2019-05-06T17:26:28.797Z,13.28
2019-05-06T17:29:10.547Z,14.38
2019-05-06T17:31:39.907Z,12.85
2019-05-06T17:34:17.568Z,16.55
2019-05-06T17:36:44.042Z,21.23
2019-05-06T17:39:11.633Z,16.27
2019-05-06T17:41:46.024Z,21.77
2019-05-06T17:44:11.978Z,89.42
2019-05-06T17:46:43.422Z,36.85
2019-05-06T17:49:14.918Z,17.50
2019-05-06T17:51:43.780Z,20.60
2019-05-06T17:54:12.450Z,14.90
2019-05-06T17:56:41.921Z,15.58
2019-05-06T17:59:08.888Z,12.28
2019-05-06T18:01:37.605Z,16.20
2019-05-06T18:04:04.689Z,15.80
2019-05-06T18:06:33.029Z,15.13
2019-05-06T18:09:05.167Z,15.72
2019-05-06T18:11:33.183Z,12.13
2019-05-06T18:14:00.509Z,15.15
2019-05-06T18:16:27.383Z,15.35
2019-05-06T18:18:54.322Z,13.43
2019-05-06T18:21:23.024Z,12.80
2019-05-06T18:23:52.139Z,15.45
2019-05-06T18:26:18.475Z,11.95
2019-05-06T18:28:45.194Z,13.60
2019-05-06T18:31:12.562Z,15.48
2019-05-06T18:33:43.094Z,12.20
2019-05-06T18:36:10.327Z,13.40
2019-05-06T18:38:38.867Z,15.90
2019-05-06T18:41:05.427Z,15.18
2019-05-06T18:43:33.296Z,15.45
2019-05-06T18:46:02.744Z,14.33
2019-05-06T18:48:31.618Z,18.10
2019-05-06T18:50:57.898Z,18.17
2019-05-06T18:53:28.155Z,17.17
2019-05-06T18:55:56.580Z,22.80
2019-05-06T18:58:23.438Z,23.25
2019-05-06T19:00:50.211Z,14.75
2019-05-06T19:03:16.940Z,14.45
2019-05-06T19:05:45.300Z,20.12
2019-05-06T19:08:29.694Z,12.15
2019-05-06T19:10:56.692Z,11.53
2019-05-06T19:13:24.812Z,13.28
2019-05-06T19:15:52.658Z,16.62
2019-05-06T19:18:22.498Z,12.40
2019-05-06T19:20:50.332Z,10.10
2019-05-06T19:23:17.178Z,13.28
2019-05-06T19:25:45.432Z,16.82
2019-05-06T19:28:14.143Z,14.63
2019-05-06T19:30:41.963Z,15.25
2019-05-06T19:33:08.643Z,14.28
2019-05-06T19:35:37.108Z,18.85
2019-05-06T19:38:05.245Z,15.00
2019-05-06T19:40:32.507Z,17.77
2019-05-06T19:42:59.384Z,18.85
2019-05-06T19:45:26.211Z,18.37
2019-05-06T19:47:52.821Z,16.75
2019-05-06T19:50:23.529Z,19.40
2019-05-06T19:52:48.343Z,15.80
2019-05-06T19:55:16.426Z,20.90
2019-05-06T19:57:43.243Z,22.25
2019-05-06T20:00:10.719Z,22.70
2019-05-06T20:02:37.534Z,18.92
2019-05-06T20:05:17.294Z,18.57
2019-05-06T20:07:49.175Z,21.75
2019-05-06T20:10:17.959Z,12.73
2019-05-06T20:12:59.430Z,15.35
2019-05-06T20:15:32.468Z,12.00
2019-05-06T20:17:59.218Z,9.15
2019-05-06T20:20:25.971Z,9.98
2019-05-06T20:22:52.670Z,11.55
2019-05-06T20:25:19.540Z,9.70
2019-05-06T20:27:46.114Z,14.43
2019-05-06T20:30:13.712Z,15.30
2019-05-06T20:32:42.509Z,17.75
2019-05-06T20:35:09.616Z,22.25
2019-05-06T20:37:36.543Z,20.02
2019-05-06T20:40:04.534Z,18.95
2019-05-06T20:42:32.734Z,20.25
2019-05-06T20:44:59.564Z,20.27
2019-05-06T20:47:26.360Z,21.23
2019-05-06T20:49:53.100Z,18.85
2019-05-06T20:52:20.261Z,21.33
2019-05-06T20:54:47.138Z,21.80
2019-05-06T20:57:13.922Z,19.27
2019-05-06T20:59:41.957Z,16.20
2019-05-06T21:02:09.138Z,16.97
2019-05-06T21:04:35.959Z,22.80
2019-05-06T21:07:03.186Z,20.82
2019-05-06T21:09:31.998Z,18.52
2019-05-06T21:11:58.740Z,24.07
2019-05-06T21:14:25.817Z,24.85
2019-05-06T21:16:52.527Z,26.40
2019-05-06T21:19:19.085Z,26.30
2019-05-06T21:21:45.930Z,25.02
2019-05-06T21:24:13.116Z,21.27
2019-05-06T21:26:42.306Z,26.10
2019-05-06T21:29:08.627Z,26.27
2019-05-06T21:31:35.311Z,26.60
2019-05-06T21:34:02.032Z,30.00
2019-05-06T21:36:28.748Z,25.92
2019-05-06T21:38:55.444Z,26.30
2019-05-06T21:41:23.157Z,25.70
2019-05-06T21:43:50.400Z,25.27
2019-05-06T21:46:17.795Z,25.02
2019-05-06T21:48:44.523Z,23.52
2019-05-06T21:51:12.892Z,27.75
2019-05-06T21:53:39.806Z,23.45
2019-05-06T21:56:07.575Z,23.95
2019-05-06T21:58:35.782Z,22.10
2019-05-06T22:01:04.959Z,22.42
2019-05-06T22:03:32.750Z,19.10
2019-05-06T22:06:02.074Z,21.48
2019-05-06T22:08:30.149Z,21.57
2019-05-06T22:11:00.240Z,20.97
2019-05-06T22:13:27.192Z,19.90
2019-05-06T22:15:54.473Z,22.95
2019-05-06T22:18:22.893Z,21.15
2019-05-06T22:21:07.901Z,20.32
2019-05-06T22:23:49.877Z,16.65
2019-05-06T22:26:16.818Z,22.90
2019-05-06T22:28:43.595Z,17.37
2019-05-06T22:31:10.335Z,19.52
2019-05-06T22:33:38.661Z,16.95
2019-05-06T22:36:06.866Z,17.27
2019-05-06T22:38:33.522Z,19.17
2019-05-06T22:41:02.328Z,16.65
2019-05-06T22:43:28.906Z,20.65
2019-05-06T22:45:55.829Z,20.43
2019-05-06T22:48:22.341Z,18.80
2019-05-06T22:50:49.014Z,19.42
2019-05-06T22:53:17.297Z,23.65
2019-05-06T22:55:44.054Z,17.75
2019-05-06T22:58:11.975Z,20.45
2019-05-06T23:00:42.528Z,19.27
2019-05-06T23:03:12.330Z,23.85
2019-05-06T23:05:39.185Z,19.55
2019-05-06T23:08:05.971Z,23.55
2019-05-06T23:10:33.652Z,19.90
2019-05-06T23:13:02.977Z,18.17
2019-05-06T23:15:29.373Z,18.90
2019-05-06T23:17:55.954Z,24.20
2019-05-06T23:20:24.471Z,22.45
2019-05-06T23:22:51.317Z,22.40
2019-05-06T23:25:18.222Z,21.25
2019-05-06T23:27:44.857Z,20.15
2019-05-06T23:30:12.749Z,17.00
2019-05-06T23:32:39.684Z,21.00
2019-05-06T23:35:06.616Z,20.60
2019-05-06T23:38:29.373Z,23.60
2019-05-06T23:41:52.917Z,23.87
2019-05-06T23:45:15.964Z,23.65
2019-05-06T23:48:38.971Z,21.60
2019-05-06T23:52:02.833Z,27.00
2019-05-06T23:55:25.615Z,22.20
2019-05-06T23:57:52.621Z,27.05
